Time;durP1;ratioP1;P1;durP2;ratioP2;P2;SDS_P1;SDS_P2;PMS_P1;PMS_P2;Temp;Humidity;BMP_temperature;BMP_pressure;BME280_temperature;BME280_humidity;BME280_pressure;Samples;Min_cycle;Max_cycle;Signal;HPM_P1;HPM_P2
2023/05/02 00:01:20;;;;;;;2.97;1.60;;;;;;;;;;5095103;28;20199;-41
2023/05/02 00:03:47;;;;;;;2.65;1.35;;;;;;;;;;5094803;28;20207;-41
2023/05/02 00:06:15;;;;;;;2.65;1.38;;;;;;;;;;5093612;28;20681;-41
2023/05/02 00:08:43;;;;;;;2.85;1.85;;;;;;;;;;5094803;28;20198;-40
2023/05/02 00:11:10;;;;;;;2.45;1.40;;;;;;;;;;5094680;28;20195;-40
2023/05/02 00:13:37;;;;;;;2.28;1.58;;;;;;;;;;5094817;28;20182;-40
2023/05/02 00:16:05;;;;;;;3.55;1.40;;;;;;;;;;5094855;28;20595;-41
2023/05/02 00:18:32;;;;;;;2.70;1.48;;;;;;;;;;5094658;28;20637;-40
2023/05/02 00:20:59;;;;;;;4.55;1.77;;;;;;;;;;5094427;28;20202;-40
2023/05/02 00:23:26;;;;;;;2.70;1.50;;;;;;;;;;5094694;28;20225;-45
2023/05/02 00:25:53;;;;;;;3.85;1.75;;;;;;;;;;5094494;28;20313;-40
2023/05/02 00:28:20;;;;;;;2.17;1.20;;;;;;;;;;5094043;28;20203;-41
2023/05/02 00:30:48;;;;;;;3.22;1.67;;;;;;;;;;5094242;28;20230;-41
2023/05/02 00:33:15;;;;;;;2.45;1.60;;;;;;;;;;5093135;28;20229;-40
2023/05/02 00:35:42;;;;;;;4.93;1.73;;;;;;;;;;5093179;28;20599;-41
2023/05/02 00:38:09;;;;;;;2.80;1.55;;;;;;;;;;5094301;28;20207;-41
2023/05/02 00:40:47;;;;;;;2.47;1.40;;;;;;;;;;5093035;28;20292;-40
2023/05/02 00:43:15;;;;;;;2.97;1.63;;;;;;;;;;5093052;28;20618;-40
2023/05/02 00:45:43;;;;;;;4.43;1.35;;;;;;;;;;5093909;28;20645;-40
2023/05/02 00:48:10;;;;;;;4.20;1.70;;;;;;;;;;5092768;28;20572;-40
2023/05/02 00:50:40;;;;;;;3.00;1.40;;;;;;;;;;5094274;28;20202;-40
2023/05/02 00:53:09;;;;;;;2.67;1.52;;;;;;;;;;5093917;28;20260;-40
2023/05/02 00:55:36;;;;;;;2.88;1.85;;;;;;;;;;5092688;28;20238;-40
2023/05/02 00:58:10;;;;;;;2.85;1.48;;;;;;;;;;5094095;28;20210;-40
2023/05/02 01:00:40;;;;;;;3.20;1.40;;;;;;;;;;5093811;28;20674;-40
2023/05/02 01:03:18;;;;;;;2.90;1.73;;;;;;;;;;5092772;28;20203;-40
2023/05/02 01:05:58;;;;;;;4.00;1.50;;;;;;;;;;5092395;28;20218;-40
2023/05/02 01:08:34;;;;;;;2.55;1.40;;;;;;;;;;5075947;28;20665;-40
2023/05/02 01:11:15;;;;;;;2.42;1.17;;;;;;;;;;5092936;28;20210;-41
2023/05/02 01:13:46;;;;;;;3.38;1.70;;;;;;;;;;5075939;28;20210;-41
2023/05/02 01:16:15;;;;;;;2.25;1.40;;;;;;;;;;5092958;28;20203;-40
2023/05/02 01:18:43;;;;;;;1.85;1.20;;;;;;;;;;5092397;28;20257;-40
2023/05/02 01:21:11;;;;;;;1.45;1.10;;;;;;;;;;5092459;28;20202;-40
2023/05/02 01:23:56;;;;;;;2.67;1.33;;;;;;;;;;5075855;28;20202;-40
2023/05/02 01:26:43;;;;;;;2.80;1.50;;;;;;;;;;5092403;28;20311;-41
2023/05/02 01:29:13;;;;;;;2.42;1.50;;;;;;;;;;5093516;28;20565;-40
2023/05/02 01:31:42;;;;;;;3.67;1.40;;;;;;;;;;5092241;28;20194;-41
2023/05/02 01:34:10;;;;;;;1.70;1.23;;;;;;;;;;5092516;28;20203;-41
2023/05/02 01:36:45;;;;;;;3.28;1.20;;;;;;;;;;5092166;28;20253;-41
2023/05/02 01:39:17;;;;;;;2.88;1.33;;;;;;;;;;5092630;28;20307;-40
2023/05/02 01:41:45;;;;;;;1.67;1.23;;;;;;;;;;5097848;28;20229;-40
2023/05/02 01:44:15;;;;;;;2.55;1.05;;;;;;;;;;5079892;28;20557;-40
2023/05/02 01:46:43;;;;;;;2.80;1.25;;;;;;;;;;5096447;28;20204;-40
2023/05/02 01:49:11;;;;;;;2.45;1.30;;;;;;;;;;5096212;28;20647;-42
2023/05/02 01:51:47;;;;;;;3.70;1.30;;;;;;;;;;5096396;28;20206;-41
2023/05/02 01:54:16;;;;;;;2.85;1.48;;;;;;;;;;5097769;28;20271;-40
2023/05/02 01:56:44;;;;;;;1.83;1.35;;;;;;;;;;5096223;28;20591;-41
2023/05/02 01:59:14;;;;;;;1.60;1.23;;;;;;;;;;5096266;28;20187;-41
2023/05/02 02:01:42;;;;;;;1.85;1.00;;;;;;;;;;5097329;28;20546;-41
2023/05/02 02:04:12;;;;;;;1.50;1.02;;;;;;;;;;5079275;28;20247;-40
2023/05/02 02:06:42;;;;;;;1.95;1.42;;;;;;;;;;5095944;28;20708;-41
2023/05/02 02:09:10;;;;;;;2.72;1.27;;;;;;;;;;5097091;28;20671;-40
2023/05/02 02:11:51;;;;;;;1.42;1.02;;;;;;;;;;5096099;28;20200;-41
2023/05/02 02:14:25;;;;;;;1.77;1.05;;;;;;;;;;5095969;28;20211;-42
2023/05/02 02:16:55;;;;;;;4.35;1.38;;;;;;;;;;5097263;28;20205;-40
2023/05/02 02:19:23;;;;;;;1.13;0.98;;;;;;;;;;5095794;28;20261;-41
2023/05/02 02:21:51;;;;;;;1.95;1.30;;;;;;;;;;5095575;28;20203;-41
2023/05/02 02:24:20;;;;;;;2.58;1.20;;;;;;;;;;5095329;28;20587;-41
2023/05/02 02:26:47;;;;;;;2.42;1.27;;;;;;;;;;5078543;28;20198;-41
2023/05/02 02:29:14;;;;;;;2.30;1.40;;;;;;;;;;5096697;28;20214;-41
2023/05/02 02:31:41;;;;;;;3.35;1.10;;;;;;;;;;5096545;28;20203;-41
2023/05/02 02:34:09;;;;;;;2.58;1.50;;;;;;;;;;5095272;28;20207;-40
2023/05/02 02:36:45;;;;;;;2.95;1.15;;;;;;;;;;5096332;28;20214;-40
2023/05/02 02:39:34;;;;;;;2.13;1.17;;;;;;;;;;5078323;28;20234;-40
2023/05/02 02:42:38;;;;;;;2.42;1.42;;;;;;;;;;5095044;28;20560;-41
2023/05/02 02:45:08;;;;;;;1.95;1.45;;;;;;;;;;5096134;28;20230;-41
2023/05/02 02:47:58;;;;;;;2.10;1.20;;;;;;;;;;5094937;28;20210;-41
2023/05/02 02:50:35;;;;;;;1.95;1.50;;;;;;;;;;5095515;28;20241;-40
2023/05/02 02:53:08;;;;;;;2.78;1.50;;;;;;;;;;5078258;28;20704;-41
2023/05/02 02:56:05;;;;;;;2.30;1.23;;;;;;;;;;5094826;28;20211;-42
2023/05/02 02:58:44;;;;;;;2.40;1.33;;;;;;;;;;5096119;28;20259;-42
2023/05/02 03:01:17;;;;;;;2.75;1.20;;;;;;;;;;5094991;28;20195;-41
2023/05/02 03:03:46;;;;;;;2.92;1.50;;;;;;;;;;5094803;28;20203;-41
2023/05/02 03:06:15;;;;;;;2.30;1.50;;;;;;;;;;5094387;28;20219;-41
2023/05/02 03:08:43;;;;;;;2.33;1.58;;;;;;;;;;5095617;28;20225;-42
2023/05/02 03:11:15;;;;;;;2.83;1.25;;;;;;;;;;5094457;28;20203;-41
2023/05/02 03:13:42;;;;;;;1.75;1.17;;;;;;;;;;5094675;28;20276;-41
2023/05/02 03:16:39;;;;;;;2.78;1.40;;;;;;;;;;5094575;28;20206;-41
2023/05/02 03:19:10;;;;;;;1.48;0.90;;;;;;;;;;5094691;28;20191;-41
2023/05/02 03:21:37;;;;;;;1.35;1.05;;;;;;;;;;5092413;28;20223;-42
2023/05/02 03:24:11;;;;;;;2.13;1.17;;;;;;;;;;5088345;28;20209;-42
2023/05/02 03:26:39;;;;;;;2.00;1.10;;;;;;;;;;5090470;28;20241;-42
2023/05/02 03:29:08;;;;;;;2.60;1.05;;;;;;;;;;5092816;28;20199;-42
2023/05/02 03:31:39;;;;;;;3.00;1.48;;;;;;;;;;5093019;28;20209;-41
2023/05/02 03:34:07;;;;;;;2.60;1.50;;;;;;;;;;5093001;28;20202;-42
2023/05/02 03:36:36;;;;;;;2.63;1.27;;;;;;;;;;5090935;28;20678;-40
2023/05/02 03:39:03;;;;;;;2.05;1.15;;;;;;;;;;5092135;28;20326;-43
2023/05/02 03:41:30;;;;;;;2.13;1.30;;;;;;;;;;5089443;28;20198;-41
2023/05/02 03:44:03;;;;;;;1.67;1.23;;;;;;;;;;5091148;28;20252;-41
2023/05/02 03:46:31;;;;;;;2.40;1.25;;;;;;;;;;5090519;28;20231;-41
2023/05/02 03:48:59;;;;;;;1.70;1.23;;;;;;;;;;5093051;28;20207;-41
2023/05/02 03:51:27;;;;;;;3.20;1.33;;;;;;;;;;5091919;28;20202;-42
2023/05/02 03:53:57;;;;;;;5.53;1.40;;;;;;;;;;5089355;28;20646;-43
2023/05/02 03:56:25;;;;;;;2.15;1.23;;;;;;;;;;5092833;28;20222;-41
2023/05/02 03:59:10;;;;;;;1.85;1.23;;;;;;;;;;5090190;28;20690;-43
2023/05/02 04:01:38;;;;;;;1.30;1.00;;;;;;;;;;5092244;28;20279;-42
2023/05/02 04:04:06;;;;;;;1.17;0.95;;;;;;;;;;5082929;28;20246;-41
2023/05/02 04:06:39;;;;;;;3.33;1.17;;;;;;;;;;5086990;28;20238;-41
2023/05/02 04:09:08;;;;;;;3.33;1.15;;;;;;;;;;5092537;28;20630;-41
2023/05/02 04:11:41;;;;;;;2.58;1.40;;;;;;;;;;5092974;28;20215;-41
2023/05/02 04:14:11;;;;;;;1.33;1.10;;;;;;;;;;5092880;28;20215;-41
2023/05/02 04:16:39;;;;;;;3.53;1.35;;;;;;;;;;5092819;28;20234;-41
2023/05/02 04:19:06;;;;;;;2.70;1.30;;;;;;;;;;5083565;28;20246;-42
2023/05/02 04:21:36;;;;;;;1.90;1.35;;;;;;;;;;5091530;28;20219;-42
2023/05/02 04:24:04;;;;;;;1.85;0.95;;;;;;;;;;5088003;28;20612;-41
2023/05/02 04:26:32;;;;;;;2.22;1.25;;;;;;;;;;5085143;28;20226;-41
2023/05/02 04:29:05;;;;;;;1.83;1.35;;;;;;;;;;5080609;28;20238;-41
2023/05/02 04:31:33;;;;;;;1.98;1.20;;;;;;;;;;5081776;28;20271;-42
2023/05/02 04:34:00;;;;;;;3.30;1.40;;;;;;;;;;5080600;28;20229;-42
2023/05/02 04:36:33;;;;;;;2.08;1.15;;;;;;;;;;5072916;28;20227;-42
2023/05/02 04:39:02;;;;;;;1.42;1.00;;;;;;;;;;5089877;28;20703;-41
2023/05/02 04:41:33;;;;;;;1.92;1.20;;;;;;;;;;5092315;28;20222;-41
2023/05/02 04:44:04;;;;;;;1.75;1.25;;;;;;;;;;5088746;28;20229;-41
2023/05/02 04:46:33;;;;;;;2.08;1.10;;;;;;;;;;5088358;28;20257;-41
2023/05/02 04:49:00;;;;;;;2.47;1.20;;;;;;;;;;5075194;28;20229;-41
2023/05/02 04:51:30;;;;;;;1.50;1.02;;;;;;;;;;5080488;28;20655;-41
2023/05/02 04:53:57;;;;;;;1.08;0.90;;;;;;;;;;5072594;28;21208;-41
2023/05/02 04:56:26;;;;;;;2.25;1.10;;;;;;;;;;5084295;28;20267;-41
2023/05/02 04:58:53;;;;;;;2.38;1.17;;;;;;;;;;5072886;28;20554;-41
2023/05/02 05:01:22;;;;;;;2.22;1.05;;;;;;;;;;5071595;28;20199;-42
2023/05/02 05:03:50;;;;;;;3.40;1.10;;;;;;;;;;5084725;28;20275;-42
2023/05/02 05:06:18;;;;;;;3.15;1.60;;;;;;;;;;5077096;28;20276;-41
2023/05/02 05:08:46;;;;;;;2.20;1.15;;;;;;;;;;5083627;28;20623;-42
2023/05/02 05:11:15;;;;;;;1.48;1.10;;;;;;;;;;5072248;28;20207;-41
2023/05/02 05:13:42;;;;;;;2.97;1.25;;;;;;;;;;5078706;28;20211;-41
2023/05/02 05:16:11;;;;;;;0.75;0.75;;;;;;;;;;5079556;28;20207;-42
2023/05/02 05:18:41;;;;;;;1.63;1.20;;;;;;;;;;5084912;28;20209;-41
2023/05/02 05:21:11;;;;;;;2.83;1.45;;;;;;;;;;5083577;28;20203;-41
2023/05/02 05:23:44;;;;;;;1.02;0.88;;;;;;;;;;5114830;27;20207;-41
2023/05/02 05:26:15;;;;;;;2.88;1.30;;;;;;;;;;5072048;28;20692;-42
2023/05/02 05:28:46;;;;;;;3.63;1.10;;;;;;;;;;5105908;28;20577;-40
2023/05/02 05:31:15;;;;;;;2.53;1.33;;;;;;;;;;5072277;28;20203;-41
2023/05/02 05:33:46;;;;;;;2.63;1.00;;;;;;;;;;5073339;28;20203;-41
2023/05/02 05:36:14;;;;;;;1.40;0.90;;;;;;;;;;5072205;28;20203;-41
2023/05/02 05:38:41;;;;;;;1.38;1.08;;;;;;;;;;5073126;28;20656;-42
2023/05/02 05:41:10;;;;;;;3.83;1.00;;;;;;;;;;5072039;28;20242;-42
2023/05/02 05:43:41;;;;;;;2.05;1.38;;;;;;;;;;5071959;28;20204;-41
2023/05/02 05:46:08;;;;;;;1.77;1.20;;;;;;;;;;5073105;28;20616;-43
2023/05/02 05:48:36;;;;;;;1.40;1.08;;;;;;;;;;5071974;28;20691;-41
2023/05/02 05:51:04;;;;;;;5.90;1.40;;;;;;;;;;5071866;28;20203;-40
2023/05/02 05:53:32;;;;;;;5.00;1.20;;;;;;;;;;5073037;28;20671;-42
2023/05/02 05:56:12;;;;;;;1.63;1.10;;;;;;;;;;5072037;28;20660;-41
2023/05/02 05:58:48;;;;;;;1.67;1.13;;;;;;;;;;5071802;28;20222;-42
2023/05/02 06:01:16;;;;;;;2.20;1.30;;;;;;;;;;5071574;28;20215;-40
2023/05/02 06:03:43;;;;;;;1.98;1.42;;;;;;;;;;5073104;28;20207;-41
2023/05/02 06:06:11;;;;;;;2.22;1.10;;;;;;;;;;5071818;28;20227;-42
2023/05/02 06:08:38;;;;;;;1.45;1.25;;;;;;;;;;5073045;28;20276;-42
2023/05/02 06:11:12;;;;;;;1.83;1.00;;;;;;;;;;5072859;28;20199;-44
2023/05/02 06:13:39;;;;;;;1.98;1.13;;;;;;;;;;5072855;28;20215;-41
2023/05/02 06:16:07;;;;;;;3.03;1.30;;;;;;;;;;5108542;28;20199;-44
2023/05/02 06:18:34;;;;;;;1.67;1.20;;;;;;;;;;5088514;28;20715;-44
2023/05/02 06:21:06;;;;;;;1.80;1.17;;;;;;;;;;5090808;28;20190;-44
2023/05/02 06:23:33;;;;;;;1.52;1.30;;;;;;;;;;5090337;28;20643;-44
2023/05/02 06:26:02;;;;;;;2.33;1.00;;;;;;;;;;5091048;28;20218;-44
2023/05/02 06:28:29;;;;;;;1.80;0.90;;;;;;;;;;5093225;28;20666;-45
2023/05/02 06:31:04;;;;;;;3.83;1.13;;;;;;;;;;5094921;28;20736;-46
2023/05/02 06:33:32;;;;;;;2.20;1.30;;;;;;;;;;5093698;28;20220;-43
2023/05/02 06:36:00;;;;;;;3.80;1.30;;;;;;;;;;5094221;28;20566;-44
2023/05/02 06:38:28;;;;;;;3.95;1.30;;;;;;;;;;5092903;28;20195;-45
2023/05/02 06:40:56;;;;;;;1.88;1.17;;;;;;;;;;5095484;28;20234;-44
2023/05/02 06:43:23;;;;;;;2.58;1.23;;;;;;;;;;5095960;28;20198;-45
2023/05/02 06:45:54;;;;;;;3.88;1.42;;;;;;;;;;5094993;28;20222;-45
2023/05/02 06:48:21;;;;;;;2.03;0.95;;;;;;;;;;5094759;28;20191;-45
2023/05/02 06:50:50;;;;;;;2.25;1.20;;;;;;;;;;5094471;28;20205;-46
2023/05/02 06:53:17;;;;;;;3.95;1.38;;;;;;;;;;5094120;28;20663;-46
2023/05/02 06:55:45;;;;;;;2.33;1.40;;;;;;;;;;5093996;28;20244;-44
2023/05/02 06:58:12;;;;;;;2.97;1.48;;;;;;;;;;5094151;28;20623;-45
2023/05/02 07:00:40;;;;;;;2.83;1.70;;;;;;;;;;5094133;28;20578;-45
2023/05/02 07:03:09;;;;;;;3.08;1.13;;;;;;;;;;5094172;28;20221;-46
2023/05/02 07:05:37;;;;;;;2.60;1.30;;;;;;;;;;5091963;28;20198;-44
2023/05/02 07:08:04;;;;;;;3.60;1.52;;;;;;;;;;5093357;28;20186;-44
2023/05/02 07:10:32;;;;;;;2.20;1.20;;;;;;;;;;5092455;28;20198;-45
2023/05/02 07:12:59;;;;;;;3.42;1.40;;;;;;;;;;5094478;28;20195;-45
2023/05/02 07:15:26;;;;;;;1.65;1.10;;;;;;;;;;5094288;28;20705;-45
2023/05/02 07:17:53;;;;;;;2.05;1.20;;;;;;;;;;5094096;28;20248;-45
2023/05/02 07:20:21;;;;;;;3.22;1.30;;;;;;;;;;5094723;28;20206;-46
2023/05/02 07:22:48;;;;;;;3.80;1.27;;;;;;;;;;5094845;28;20198;-45
2023/05/02 07:25:15;;;;;;;4.15;1.58;;;;;;;;;;5095027;28;20194;-45
2023/05/02 07:27:42;;;;;;;1.35;1.20;;;;;;;;;;5093049;28;20748;-46
2023/05/02 07:30:10;;;;;;;3.28;1.70;;;;;;;;;;5094104;28;20549;-46
2023/05/02 07:32:37;;;;;;;4.32;1.70;;;;;;;;;;5093601;28;20626;-45
2023/05/02 07:35:05;;;;;;;2.55;1.65;;;;;;;;;;5093664;28;20202;-45
2023/05/02 07:37:34;;;;;;;2.22;1.55;;;;;;;;;;5093233;28;20590;-45
2023/05/02 07:40:02;;;;;;;3.15;1.63;;;;;;;;;;5094520;28;20226;-44
2023/05/02 07:42:30;;;;;;;2.58;1.40;;;;;;;;;;5094948;28;20252;-44
2023/05/02 07:44:58;;;;;;;4.55;1.63;;;;;;;;;;5094482;28;20244;-45
2023/05/02 07:47:28;;;;;;;2.22;1.50;;;;;;;;;;5071924;28;20735;-45
2023/05/02 07:49:55;;;;;;;2.78;1.23;;;;;;;;;;5084101;28;20191;-46
2023/05/02 07:52:22;;;;;;;1.85;1.45;;;;;;;;;;5094689;28;20592;-44
2023/05/02 07:54:50;;;;;;;3.08;1.55;;;;;;;;;;5094405;28;20198;-45
2023/05/02 07:57:18;;;;;;;1.98;1.40;;;;;;;;;;5094316;28;20205;-44
2023/05/02 07:59:45;;;;;;;2.90;1.50;;;;;;;;;;5094674;28;20195;-45
2023/05/02 08:02:12;;;;;;;2.13;1.40;;;;;;;;;;5094876;28;20246;-44
2023/05/02 08:04:40;;;;;;;2.28;1.40;;;;;;;;;;5094759;28;20608;-45
2023/05/02 08:07:07;;;;;;;3.45;1.80;;;;;;;;;;5094108;28;20690;-46
2023/05/02 08:09:34;;;;;;;2.78;1.50;;;;;;;;;;5094916;28;20206;-45
2023/05/02 08:12:02;;;;;;;2.47;1.48;;;;;;;;;;5094408;28;20213;-45
2023/05/02 08:14:30;;;;;;;2.25;1.58;;;;;;;;;;5094314;28;20567;-45
2023/05/02 08:16:58;;;;;;;2.40;1.42;;;;;;;;;;5094405;28;20260;-45
2023/05/02 08:19:26;;;;;;;1.88;1.55;;;;;;;;;;5094243;28;20664;-43
2023/05/02 08:21:53;;;;;;;1.90;1.52;;;;;;;;;;5094485;28;20198;-45
2023/05/02 08:24:21;;;;;;;1.98;1.33;;;;;;;;;;5094187;28;20612;-45
2023/05/02 08:26:48;;;;;;;2.60;1.40;;;;;;;;;;5093850;28;20698;-45
2023/05/02 08:29:15;;;;;;;2.85;1.55;;;;;;;;;;5093874;28;20195;-46
2023/05/02 08:31:42;;;;;;;2.75;1.77;;;;;;;;;;5094274;28;20256;-45
2023/05/02 08:34:10;;;;;;;3.00;1.45;;;;;;;;;;5093993;28;20222;-45
2023/05/02 08:36:37;;;;;;;2.80;1.50;;;;;;;;;;5093306;28;20247;-45
2023/05/02 08:39:06;;;;;;;3.80;1.85;;;;;;;;;;5092699;28;20197;-45
2023/05/02 08:41:34;;;;;;;2.55;1.60;;;;;;;;;;5093859;28;20213;-46
2023/05/02 08:44:02;;;;;;;3.85;1.92;;;;;;;;;;5093752;28;20211;-44
2023/05/02 08:46:34;;;;;;;2.10;1.50;;;;;;;;;;5093988;28;20256;-45
2023/05/02 08:49:02;;;;;;;2.90;1.25;;;;;;;;;;5093711;28;20190;-47
2023/05/02 08:51:31;;;;;;;2.33;1.70;;;;;;;;;;5093745;28;20237;-45
2023/05/02 08:54:01;;;;;;;1.42;1.33;;;;;;;;;;5093909;28;20205;-44
2023/05/02 08:56:29;;;;;;;2.05;1.33;;;;;;;;;;5093630;28;20667;-43
2023/05/02 08:58:56;;;;;;;5.03;1.52;;;;;;;;;;5093350;28;20195;-45
2023/05/02 09:01:30;;;;;;;1.67;0.98;;;;;;;;;;5093609;28;20213;-45
2023/05/02 09:03:58;;;;;;;2.45;1.50;;;;;;;;;;5092576;28;20191;-45
2023/05/02 09:06:26;;;;;;;2.00;1.45;;;;;;;;;;5093509;28;20237;-45
2023/05/02 09:08:53;;;;;;;2.15;1.30;;;;;;;;;;5093315;28;20203;-45
2023/05/02 09:11:21;;;;;;;2.38;1.20;;;;;;;;;;5093079;28;20227;-45
2023/05/02 09:13:52;;;;;;;2.25;1.35;;;;;;;;;;5092026;28;20260;-43
2023/05/02 09:16:24;;;;;;;1.63;1.20;;;;;;;;;;5092243;28;20187;-45
2023/05/02 09:18:53;;;;;;;1.95;1.20;;;;;;;;;;5092623;28;20244;-45
2023/05/02 09:21:25;;;;;;;3.83;1.55;;;;;;;;;;5092665;28;20206;-46
2023/05/02 09:24:00;;;;;;;3.38;1.20;;;;;;;;;;5092754;28;20199;-46
2023/05/02 09:26:31;;;;;;;1.80;0.93;;;;;;;;;;5092298;28;20186;-45
2023/05/02 09:29:00;;;;;;;1.75;0.90;;;;;;;;;;5093479;28;20647;-45
2023/05/02 09:31:35;;;;;;;2.15;1.13;;;;;;;;;;5093608;28;20198;-45
2023/05/02 09:34:22;;;;;;;1.60;1.10;;;;;;;;;;5093183;28;20647;-46
2023/05/02 09:36:52;;;;;;;1.90;1.00;;;;;;;;;;5093013;28;20207;-45
2023/05/02 09:39:22;;;;;;;1.23;1.00;;;;;;;;;;5092778;28;20247;-46
2023/05/02 09:41:52;;;;;;;3.45;1.00;;;;;;;;;;5093081;28;20665;-45
2023/05/02 09:44:23;;;;;;;0.70;0.70;;;;;;;;;;5092875;28;20671;-44
2023/05/02 09:46:53;;;;;;;1.55;1.08;;;;;;;;;;5093170;28;20221;-45
2023/05/02 09:49:40;;;;;;;1.80;1.20;;;;;;;;;;5092433;28;20210;-46
2023/05/02 09:52:15;;;;;;;1.70;1.25;;;;;;;;;;5090764;28;20194;-46
2023/05/02 09:54:43;;;;;;;1.55;1.02;;;;;;;;;;5090083;28;20191;-44
2023/05/02 09:57:10;;;;;;;1.05;0.73;;;;;;;;;;5091911;28;20297;-43
2023/05/02 09:59:38;;;;;;;1.67;1.10;;;;;;;;;;5091313;28;20195;-46
2023/05/02 10:02:08;;;;;;;2.17;1.05;;;;;;;;;;5094967;28;20203;-44
2023/05/02 10:04:35;;;;;;;1.20;0.95;;;;;;;;;;5095290;28;20198;-44
2023/05/02 10:07:05;;;;;;;1.08;0.90;;;;;;;;;;5075368;28;20277;-45
2023/05/02 10:09:34;;;;;;;1.70;1.15;;;;;;;;;;5089642;28;20689;-45
2023/05/02 10:12:03;;;;;;;0.98;0.77;;;;;;;;;;5096773;28;20659;-45
2023/05/02 10:14:43;;;;;;;2.35;0.75;;;;;;;;;;5096396;28;20198;-45
2023/05/02 10:17:20;;;;;;;2.03;0.73;;;;;;;;;;5095412;28;20601;-45
2023/05/02 10:19:58;;;;;;;1.20;0.75;;;;;;;;;;5096648;28;20191;-44
2023/05/02 10:22:26;;;;;;;1.23;0.77;;;;;;;;;;5095540;28;20618;-45
2023/05/02 10:24:57;;;;;;;1.40;0.90;;;;;;;;;;5099495;28;20210;-45
2023/05/02 10:27:24;;;;;;;2.17;0.90;;;;;;;;;;5095070;28;20213;-45
2023/05/02 10:29:53;;;;;;;0.88;0.80;;;;;;;;;;5096202;28;20293;-46
2023/05/02 10:32:22;;;;;;;0.80;0.80;;;;;;;;;;5095625;28;20209;-45
2023/05/02 10:34:50;;;;;;;1.27;1.00;;;;;;;;;;5095034;28;20203;-45
2023/05/02 10:37:18;;;;;;;1.33;0.80;;;;;;;;;;5095438;28;20207;-45
2023/05/02 10:39:46;;;;;;;1.35;0.90;;;;;;;;;;5096132;28;20309;-45
2023/05/02 10:42:13;;;;;;;1.15;0.90;;;;;;;;;;5095298;28;20206;-45
2023/05/02 10:44:41;;;;;;;0.50;0.50;;;;;;;;;;5096386;28;20207;-45
2023/05/02 10:47:21;;;;;;;1.00;0.70;;;;;;;;;;5096303;28;20246;-43
2023/05/02 10:49:57;;;;;;;2.00;1.17;;;;;;;;;;5095913;28;20540;-43
2023/05/02 10:52:33;;;;;;;2.15;0.75;;;;;;;;;;5096373;28;20236;-46
2023/05/02 10:55:20;;;;;;;1.05;0.90;;;;;;;;;;5094904;28;20190;-45
2023/05/02 10:57:57;;;;;;;1.55;1.02;;;;;;;;;;5081750;28;20647;-45
2023/05/02 11:00:25;;;;;;;1.70;1.00;;;;;;;;;;5094410;28;20186;-45
2023/05/02 11:02:52;;;;;;;1.50;0.90;;;;;;;;;;5091926;28;20220;-45
2023/05/02 11:05:24;;;;;;;0.93;0.80;;;;;;;;;;5090084;28;20316;-45
2023/05/02 11:08:16;;;;;;;1.70;0.95;;;;;;;;;;5090985;28;20222;-45
2023/05/02 11:10:46;;;;;;;1.10;0.80;;;;;;;;;;5087248;28;20229;-45
2023/05/02 11:13:13;;;;;;;0.77;0.73;;;;;;;;;;5084310;28;20217;-45
2023/05/02 11:15:40;;;;;;;1.88;0.98;;;;;;;;;;5088894;28;20270;-44
2023/05/02 11:18:11;;;;;;;0.90;0.80;;;;;;;;;;5086511;28;20215;-44
2023/05/02 11:20:40;;;;;;;1.58;1.10;;;;;;;;;;5074631;28;20232;-44
2023/05/02 11:23:20;;;;;;;1.05;0.90;;;;;;;;;;5074847;28;20219;-44
2023/05/02 11:25:52;;;;;;;1.40;1.00;;;;;;;;;;5074654;28;20223;-44
2023/05/02 11:28:46;;;;;;;1.05;0.90;;;;;;;;;;5074427;28;20246;-44
2023/05/02 11:31:34;;;;;;;1.83;0.80;;;;;;;;;;5094685;28;20234;-45
2023/05/02 11:34:02;;;;;;;1.45;0.73;;;;;;;;;;5087018;28;20221;-45
2023/05/02 11:36:34;;;;;;;1.75;0.98;;;;;;;;;;5094671;28;20245;-44
2023/05/02 11:39:04;;;;;;;2.20;0.90;;;;;;;;;;5092892;28;20309;-45
2023/05/02 11:41:38;;;;;;;1.17;0.98;;;;;;;;;;5090764;28;20530;-44
2023/05/02 11:44:06;;;;;;;1.85;1.10;;;;;;;;;;5091500;28;20203;-43
2023/05/02 11:46:36;;;;;;;2.03;0.90;;;;;;;;;;5091746;28;20223;-45
2023/05/02 11:49:04;;;;;;;1.65;1.00;;;;;;;;;;5091749;28;20230;-44
2023/05/02 11:51:35;;;;;;;2.10;1.10;;;;;;;;;;5092372;28;20225;-45
2023/05/02 11:54:02;;;;;;;0.80;0.70;;;;;;;;;;5093114;28;20222;-46
2023/05/02 11:56:30;;;;;;;2.30;0.90;;;;;;;;;;5093900;28;20226;-45
2023/05/02 11:59:02;;;;;;;1.50;0.93;;;;;;;;;;5094424;28;20225;-45
2023/05/02 12:01:30;;;;;;;2.33;1.13;;;;;;;;;;5092827;28;20254;-45
2023/05/02 12:04:04;;;;;;;1.77;0.77;;;;;;;;;;5092344;28;20238;-45
2023/05/02 12:06:32;;;;;;;1.70;0.98;;;;;;;;;;5094190;28;20222;-45
2023/05/02 12:09:11;;;;;;;2.58;1.35;;;;;;;;;;5092399;28;20317;-45
2023/05/02 12:11:39;;;;;;;1.80;0.77;;;;;;;;;;5090359;28;20725;-44
2023/05/02 12:14:06;;;;;;;0.95;0.80;;;;;;;;;;5093005;28;20576;-46
2023/05/02 12:16:33;;;;;;;1.58;1.02;;;;;;;;;;5088759;28;20195;-44
2023/05/02 12:19:01;;;;;;;2.33;1.00;;;;;;;;;;5078634;28;20218;-44
2023/05/02 12:21:28;;;;;;;1.48;0.88;;;;;;;;;;5091619;28;20218;-44
2023/05/02 12:23:56;;;;;;;1.42;0.85;;;;;;;;;;5091106;28;20227;-45
2023/05/02 12:26:28;;;;;;;1.58;1.05;;;;;;;;;;5091491;28;20234;-45
2023/05/02 12:28:55;;;;;;;1.75;0.95;;;;;;;;;;5091488;28;20276;-44
2023/05/02 12:31:23;;;;;;;0.80;0.80;;;;;;;;;;5091736;28;20222;-44
2023/05/02 12:33:54;;;;;;;1.45;0.95;;;;;;;;;;5091766;28;20226;-45
2023/05/02 12:36:21;;;;;;;0.88;0.75;;;;;;;;;;5093125;28;20263;-44
2023/05/02 12:38:53;;;;;;;1.00;0.90;;;;;;;;;;5092722;28;20589;-44
2023/05/02 12:41:38;;;;;;;1.50;0.90;;;;;;;;;;5093138;28;20570;-45
2023/05/02 12:44:06;;;;;;;1.05;0.90;;;;;;;;;;5093389;28;20357;-45
2023/05/02 12:46:35;;;;;;;1.30;0.98;;;;;;;;;;5092930;28;20230;-44
2023/05/02 12:49:04;;;;;;;1.25;0.95;;;;;;;;;;5091471;28;20241;-47
2023/05/02 12:51:33;;;;;;;1.60;1.17;;;;;;;;;;5093181;28;20237;-45
2023/05/02 12:54:00;;;;;;;2.95;1.30;;;;;;;;;;5093277;28;20222;-44
2023/05/02 12:56:31;;;;;;;1.90;1.00;;;;;;;;;;5092863;28;20230;-45
2023/05/02 12:59:00;;;;;;;1.48;0.90;;;;;;;;;;5087293;28;20277;-45
2023/05/02 13:01:27;;;;;;;1.83;1.17;;;;;;;;;;5082097;28;20223;-46
2023/05/02 13:03:54;;;;;;;1.42;1.00;;;;;;;;;;5084525;28;20721;-45
2023/05/02 13:06:22;;;;;;;1.15;1.05;;;;;;;;;;5092955;28;20226;-44
2023/05/02 13:08:49;;;;;;;1.00;0.75;;;;;;;;;;5092435;28;20230;-44
2023/05/02 13:11:16;;;;;;;1.35;0.95;;;;;;;;;;5092936;28;20218;-44
2023/05/02 13:13:43;;;;;;;1.42;0.90;;;;;;;;;;5092075;28;20233;-45
2023/05/02 13:16:11;;;;;;;1.38;0.95;;;;;;;;;;5092192;28;20218;-44
2023/05/02 13:18:38;;;;;;;1.10;0.88;;;;;;;;;;5092495;28;20619;-45
2023/05/02 13:21:05;;;;;;;2.83;0.90;;;;;;;;;;5092713;28;20223;-44
2023/05/02 13:23:32;;;;;;;1.27;0.80;;;;;;;;;;5092243;28;20223;-44
2023/05/02 13:25:59;;;;;;;1.45;0.98;;;;;;;;;;5092374;28;20276;-44
2023/05/02 13:28:27;;;;;;;0.95;0.80;;;;;;;;;;5093017;28;20331;-45
2023/05/02 13:30:55;;;;;;;0.88;0.80;;;;;;;;;;5092531;28;20230;-44
2023/05/02 13:33:22;;;;;;;1.75;1.00;;;;;;;;;;5092051;28;20590;-44
2023/05/02 13:35:49;;;;;;;0.93;0.90;;;;;;;;;;5096676;28;20747;-45
2023/05/02 13:38:16;;;;;;;1.58;0.82;;;;;;;;;;5099770;28;20229;-44
2023/05/02 13:40:43;;;;;;;1.33;0.90;;;;;;;;;;5099121;28;20238;-45
2023/05/02 13:43:10;;;;;;;2.28;1.05;;;;;;;;;;5092450;28;20219;-45
2023/05/02 13:45:38;;;;;;;1.83;1.00;;;;;;;;;;5092792;28;20230;-45
2023/05/02 13:48:05;;;;;;;1.23;0.80;;;;;;;;;;5099217;28;20248;-45
2023/05/02 13:50:36;;;;;;;1.02;0.70;;;;;;;;;;5098694;28;20226;-45
2023/05/02 13:53:03;;;;;;;1.35;0.90;;;;;;;;;;5091908;28;20686;-45
2023/05/02 13:55:30;;;;;;;1.40;1.00;;;;;;;;;;5094052;27;20238;-45
2023/05/02 13:57:57;;;;;;;1.33;0.80;;;;;;;;;;5098992;28;20718;-46
2023/05/02 14:00:26;;;;;;;2.20;0.90;;;;;;;;;;5098953;28;20222;-46
2023/05/02 14:02:54;;;;;;;1.23;1.02;;;;;;;;;;5098411;28;20716;-45
2023/05/02 14:05:21;;;;;;;1.90;1.30;;;;;;;;;;5098993;28;20222;-45
2023/05/02 14:07:49;;;;;;;2.15;1.20;;;;;;;;;;5092843;28;20249;-45
2023/05/02 14:10:16;;;;;;;2.15;1.40;;;;;;;;;;5091693;28;20234;-46
2023/05/02 14:12:43;;;;;;;1.77;1.23;;;;;;;;;;5098517;28;20257;-45
2023/05/02 14:15:11;;;;;;;1.65;1.20;;;;;;;;;;5099101;28;20214;-45
2023/05/02 14:17:38;;;;;;;1.95;1.20;;;;;;;;;;5098705;28;20321;-45
2023/05/02 14:20:09;;;;;;;1.50;0.93;;;;;;;;;;5095213;28;20585;-45
2023/05/02 14:22:36;;;;;;;1.17;0.90;;;;;;;;;;5097334;28;20275;-45
2023/05/02 14:25:04;;;;;;;1.35;1.15;;;;;;;;;;5092492;28;20233;-45
2023/05/02 14:27:31;;;;;;;1.10;1.00;;;;;;;;;;5091524;28;20223;-45
2023/05/02 14:29:58;;;;;;;1.98;1.13;;;;;;;;;;5093755;28;20214;-45
2023/05/02 14:32:26;;;;;;;3.03;0.85;;;;;;;;;;5098908;28;20223;-46
2023/05/02 14:34:54;;;;;;;1.88;1.17;;;;;;;;;;5098862;28;20214;-44
2023/05/02 14:37:20;;;;;;;1.33;1.05;;;;;;;;;;5099218;28;20614;-44
2023/05/02 14:39:51;;;;;;;2.13;1.23;;;;;;;;;;5097851;28;20243;-44
2023/05/02 14:42:24;;;;;;;1.52;1.10;;;;;;;;;;5095651;28;20608;-45
2023/05/02 14:44:52;;;;;;;1.65;1.33;;;;;;;;;;5090118;28;20302;-45
2023/05/02 14:47:19;;;;;;;1.83;1.05;;;;;;;;;;5095585;28;20230;-44
2023/05/02 14:49:47;;;;;;;2.10;1.38;;;;;;;;;;5095485;28;20219;-44
2023/05/02 14:52:15;;;;;;;2.72;1.20;;;;;;;;;;5088106;28;20215;-43
2023/05/02 14:54:42;;;;;;;1.35;1.08;;;;;;;;;;5075335;28;20219;-44
2023/05/02 14:57:10;;;;;;;1.92;1.27;;;;;;;;;;5095101;28;20227;-44
2023/05/02 14:59:37;;;;;;;1.60;1.17;;;;;;;;;;5088684;28;20754;-44